sensor_id;sensor_type;location;lat;lon;timestamp;temperature;humidity
947;DHT22;460;48.734;9.152;2023-08-07T00:01:13;11.80;99.90
947;DHT22;460;48.734;9.152;2023-08-07T00:03:40;11.70;99.90
947;DHT22;460;48.734;9.152;2023-08-07T00:06:07;11.70;99.90
947;DHT22;460;48.734;9.152;2023-08-07T00:08:35;11.60;99.90
947;DHT22;460;48.734;9.152;2023-08-07T00:11:06;11.60;99.90
947;DHT22;460;48.734;9.152;2023-08-07T00:13:33;11.60;99.90
947;DHT22;460;48.734;9.152;2023-08-07T00:16:00;11.60;99.90
947;DHT22;460;48.734;9.152;2023-08-07T00:18:27;11.50;99.90
947;DHT22;460;48.734;9.152;2023-08-07T00:20:54;11.60;99.90
947;DHT22;460;48.734;9.152;2023-08-07T00:23:21;11.70;99.90
947;DHT22;460;48.734;9.152;2023-08-07T00:25:49;11.60;99.90
947;DHT22;460;48.734;9.152;2023-08-07T00:28:15;11.50;99.90
947;DHT22;460;48.734;9.152;2023-08-07T00:30:42;11.50;99.90
947;DHT22;460;48.734;9.152;2023-08-07T00:33:09;11.60;99.90
947;DHT22;460;48.734;9.152;2023-08-07T00:35:36;11.60;99.90
947;DHT22;460;48.734;9.152;2023-08-07T00:38:04;11.70;99.90
947;DHT22;460;48.734;9.152;2023-08-07T00:40:36;11.70;99.90
947;DHT22;460;48.734;9.152;2023-08-07T00:43:05;11.70;99.90
947;DHT22;460;48.734;9.152;2023-08-07T00:45:35;11.70;99.90
947;DHT22;460;48.734;9.152;2023-08-07T00:48:04;11.70;99.90
947;DHT22;460;48.734;9.152;2023-08-07T00:50:31;11.70;99.90
947;DHT22;460;48.734;9.152;2023-08-07T00:52:58;11.60;99.90
947;DHT22;460;48.734;9.152;2023-08-07T00:55:26;11.70;99.90
947;DHT22;460;48.734;9.152;2023-08-07T00:57:53;11.70;99.90
947;DHT22;460;48.734;9.152;2023-08-07T01:00:21;11.60;99.90
947;DHT22;460;48.734;9.152;2023-08-07T01:02:49;11.60;99.90
947;DHT22;460;48.734;9.152;2023-08-07T01:05:17;11.70;99.90
947;DHT22;460;48.734;9.152;2023-08-07T01:07:46;11.70;99.90
947;DHT22;460;48.734;9.152;2023-08-07T01:10:14;11.70;99.90
947;DHT22;460;48.734;9.152;2023-08-07T01:12:48;11.70;99.90
947;DHT22;460;48.734;9.152;2023-08-07T01:15:19;11.70;99.90
947;DHT22;460;48.734;9.152;2023-08-07T01:17:50;11.60;99.90
947;DHT22;460;48.734;9.152;2023-08-07T01:20:20;11.70;99.90
947;DHT22;460;48.734;9.152;2023-08-07T01:22:48;11.70;99.90
947;DHT22;460;48.734;9.152;2023-08-07T01:25:16;11.70;99.90
947;DHT22;460;48.734;9.152;2023-08-07T01:27:50;11.60;99.90
947;DHT22;460;48.734;9.152;2023-08-07T01:30:26;11.60;99.90
947;DHT22;460;48.734;9.152;2023-08-07T01:32:59;11.60;99.90
947;DHT22;460;48.734;9.152;2023-08-07T01:35:34;11.70;99.90
947;DHT22;460;48.734;9.152;2023-08-07T01:38:03;11.70;99.90
947;DHT22;460;48.734;9.152;2023-08-07T01:40:32;11.70;99.90
947;DHT22;460;48.734;9.152;2023-08-07T01:43:00;11.70;99.90
947;DHT22;460;48.734;9.152;2023-08-07T01:45:29;11.70;99.90
947;DHT22;460;48.734;9.152;2023-08-07T01:47:57;11.60;99.90
947;DHT22;460;48.734;9.152;2023-08-07T01:50:24;11.70;99.90
947;DHT22;460;48.734;9.152;2023-08-07T01:52:52;11.70;99.90
947;DHT22;460;48.734;9.152;2023-08-07T01:55:22;11.80;99.90
947;DHT22;460;48.734;9.152;2023-08-07T01:57:51;11.70;99.90
947;DHT22;460;48.734;9.152;2023-08-07T02:00:20;11.80;99.90
947;DHT22;460;48.734;9.152;2023-08-07T02:02:48;11.70;99.90
947;DHT22;460;48.734;9.152;2023-08-07T02:05:16;11.80;99.90
947;DHT22;460;48.734;9.152;2023-08-07T02:07:44;11.80;99.90
947;DHT22;460;48.734;9.152;2023-08-07T02:10:11;11.80;99.90
947;DHT22;460;48.734;9.152;2023-08-07T02:12:39;11.70;99.90
947;DHT22;460;48.734;9.152;2023-08-07T02:15:07;11.80;99.90
947;DHT22;460;48.734;9.152;2023-08-07T02:17:34;11.70;99.90
947;DHT22;460;48.734;9.152;2023-08-07T02:20:05;11.70;99.90
947;DHT22;460;48.734;9.152;2023-08-07T02:22:33;11.70;99.90
947;DHT22;460;48.734;9.152;2023-08-07T02:25:01;11.70;99.90
947;DHT22;460;48.734;9.152;2023-08-07T02:27:29;11.70;99.90
947;DHT22;460;48.734;9.152;2023-08-07T02:29:58;11.80;99.90
947;DHT22;460;48.734;9.152;2023-08-07T02:32:26;11.80;99.90
947;DHT22;460;48.734;9.152;2023-08-07T02:34:54;11.80;99.90
947;DHT22;460;48.734;9.152;2023-08-07T02:37:22;11.70;99.90
947;DHT22;460;48.734;9.152;2023-08-07T02:39:49;11.70;99.90
947;DHT22;460;48.734;9.152;2023-08-07T02:42:17;11.70;99.90
947;DHT22;460;48.734;9.152;2023-08-07T02:44:44;11.70;99.90
947;DHT22;460;48.734;9.152;2023-08-07T02:47:13;11.60;99.90
947;DHT22;460;48.734;9.152;2023-08-07T02:49:41;11.70;99.90
947;DHT22;460;48.734;9.152;2023-08-07T02:52:08;11.60;99.90
947;DHT22;460;48.734;9.152;2023-08-07T02:54:35;11.70;99.90
947;DHT22;460;48.734;9.152;2023-08-07T02:57:04;11.70;99.90
947;DHT22;460;48.734;9.152;2023-08-07T02:59:33;11.70;99.90
947;DHT22;460;48.734;9.152;2023-08-07T03:02:00;11.50;99.90
947;DHT22;460;48.734;9.152;2023-08-07T03:04:30;11.50;99.90
947;DHT22;460;48.734;9.152;2023-08-07T03:06:57;11.50;99.90
947;DHT22;460;48.734;9.152;2023-08-07T03:09:26;11.50;99.90
947;DHT22;460;48.734;9.152;2023-08-07T03:11:54;11.50;99.90
947;DHT22;460;48.734;9.152;2023-08-07T03:14:22;11.50;99.90
947;DHT22;460;48.734;9.152;2023-08-07T03:16:49;11.40;99.90
947;DHT22;460;48.734;9.152;2023-08-07T03:19:15;11.50;99.90
947;DHT22;460;48.734;9.152;2023-08-07T03:21:43;11.40;99.90
947;DHT22;460;48.734;9.152;2023-08-07T03:24:10;11.30;99.90
947;DHT22;460;48.734;9.152;2023-08-07T03:26:37;11.30;99.90
947;DHT22;460;48.734;9.152;2023-08-07T03:29:04;11.30;99.90
947;DHT22;460;48.734;9.152;2023-08-07T03:31:31;11.30;99.90
947;DHT22;460;48.734;9.152;2023-08-07T03:33:57;11.30;99.90
947;DHT22;460;48.734;9.152;2023-08-07T03:36:25;11.20;99.90
947;DHT22;460;48.734;9.152;2023-08-07T03:38:53;11.20;99.90
947;DHT22;460;48.734;9.152;2023-08-07T03:41:19;11.10;99.90
947;DHT22;460;48.734;9.152;2023-08-07T03:43:46;11.20;99.90
947;DHT22;460;48.734;9.152;2023-08-07T03:46:13;11.20;99.90
947;DHT22;460;48.734;9.152;2023-08-07T03:48:40;11.10;99.90
947;DHT22;460;48.734;9.152;2023-08-07T03:51:07;11.10;99.90
947;DHT22;460;48.734;9.152;2023-08-07T03:53:34;11.10;99.90
947;DHT22;460;48.734;9.152;2023-08-07T03:56:02;11.10;99.90
947;DHT22;460;48.734;9.152;2023-08-07T03:58:29;11.10;99.90
947;DHT22;460;48.734;9.152;2023-08-07T04:00:56;11.10;99.90
947;DHT22;460;48.734;9.152;2023-08-07T04:03:23;11.20;99.90
947;DHT22;460;48.734;9.152;2023-08-07T04:05:52;11.20;99.90
947;DHT22;460;48.734;9.152;2023-08-07T04:08:19;11.10;99.90
947;DHT22;460;48.734;9.152;2023-08-07T04:10:45;11.10;99.90
947;DHT22;460;48.734;9.152;2023-08-07T04:13:13;11.20;99.90
947;DHT22;460;48.734;9.152;2023-08-07T04:15:40;11.10;99.90
947;DHT22;460;48.734;9.152;2023-08-07T04:18:07;11.10;99.90
947;DHT22;460;48.734;9.152;2023-08-07T04:20:34;11.10;99.90
947;DHT22;460;48.734;9.152;2023-08-07T04:23:01;11.10;99.90
947;DHT22;460;48.734;9.152;2023-08-07T04:25:29;11.20;99.90
947;DHT22;460;48.734;9.152;2023-08-07T04:27:56;11.10;99.90
947;DHT22;460;48.734;9.152;2023-08-07T04:30:24;11.10;99.90
947;DHT22;460;48.734;9.152;2023-08-07T04:32:51;11.20;99.90
947;DHT22;460;48.734;9.152;2023-08-07T04:35:17;11.20;99.90
947;DHT22;460;48.734;9.152;2023-08-07T04:37:44;11.10;99.90
947;DHT22;460;48.734;9.152;2023-08-07T04:40:11;11.10;99.90
947;DHT22;460;48.734;9.152;2023-08-07T04:42:38;11.00;99.90
947;DHT22;460;48.734;9.152;2023-08-07T04:45:06;11.10;99.90
947;DHT22;460;48.734;9.152;2023-08-07T04:47:34;11.10;99.90
947;DHT22;460;48.734;9.152;2023-08-07T04:50:01;11.10;99.90
947;DHT22;460;48.734;9.152;2023-08-07T04:52:28;11.20;99.90
947;DHT22;460;48.734;9.152;2023-08-07T04:54:54;11.30;99.90
947;DHT22;460;48.734;9.152;2023-08-07T04:57:21;11.40;99.90
947;DHT22;460;48.734;9.152;2023-08-07T04:59:48;11.30;99.90
947;DHT22;460;48.734;9.152;2023-08-07T05:02:15;11.30;99.90
947;DHT22;460;48.734;9.152;2023-08-07T05:04:43;11.30;99.90
947;DHT22;460;48.734;9.152;2023-08-07T05:07:10;11.40;99.90
947;DHT22;460;48.734;9.152;2023-08-07T05:09:36;11.40;99.90
947;DHT22;460;48.734;9.152;2023-08-07T05:12:04;11.50;99.90
947;DHT22;460;48.734;9.152;2023-08-07T05:14:32;11.50;99.90
947;DHT22;460;48.734;9.152;2023-08-07T05:16:59;11.50;99.90
947;DHT22;460;48.734;9.152;2023-08-07T05:19:28;11.40;99.90
947;DHT22;460;48.734;9.152;2023-08-07T05:21:56;11.50;99.90
947;DHT22;460;48.734;9.152;2023-08-07T05:24:23;11.50;99.90
947;DHT22;460;48.734;9.152;2023-08-07T05:26:50;11.50;99.90
947;DHT22;460;48.734;9.152;2023-08-07T05:29:17;11.60;99.90
947;DHT22;460;48.734;9.152;2023-08-07T05:31:44;11.70;99.90
947;DHT22;460;48.734;9.152;2023-08-07T05:34:10;11.70;99.90
947;DHT22;460;48.734;9.152;2023-08-07T05:36:37;11.70;99.90
947;DHT22;460;48.734;9.152;2023-08-07T05:39:06;11.80;99.90
947;DHT22;460;48.734;9.152;2023-08-07T05:41:34;11.80;99.90
947;DHT22;460;48.734;9.152;2023-08-07T05:44:01;11.90;99.90
947;DHT22;460;48.734;9.152;2023-08-07T05:46:27;12.00;99.90
947;DHT22;460;48.734;9.152;2023-08-07T05:48:54;12.00;99.90
947;DHT22;460;48.734;9.152;2023-08-07T05:51:21;12.00;99.90
947;DHT22;460;48.734;9.152;2023-08-07T05:53:48;12.00;99.90
947;DHT22;460;48.734;9.152;2023-08-07T05:56:16;12.10;99.90
947;DHT22;460;48.734;9.152;2023-08-07T05:58:43;12.20;99.90
947;DHT22;460;48.734;9.152;2023-08-07T06:01:10;12.20;99.90
947;DHT22;460;48.734;9.152;2023-08-07T06:03:37;12.20;99.90
947;DHT22;460;48.734;9.152;2023-08-07T06:06:04;12.30;99.90
947;DHT22;460;48.734;9.152;2023-08-07T06:08:31;12.30;99.90
947;DHT22;460;48.734;9.152;2023-08-07T06:10:57;12.30;99.90
947;DHT22;460;48.734;9.152;2023-08-07T06:13:25;12.30;99.90
947;DHT22;460;48.734;9.152;2023-08-07T06:15:52;12.40;99.90
947;DHT22;460;48.734;9.152;2023-08-07T06:18:19;12.50;99.90
947;DHT22;460;48.734;9.152;2023-08-07T06:20:46;12.50;99.90
947;DHT22;460;48.734;9.152;2023-08-07T06:23:13;12.50;99.90
947;DHT22;460;48.734;9.152;2023-08-07T06:25:40;12.60;99.90
947;DHT22;460;48.734;9.152;2023-08-07T06:28:07;12.60;99.90
947;DHT22;460;48.734;9.152;2023-08-07T06:30:35;12.70;99.90
947;DHT22;460;48.734;9.152;2023-08-07T06:33:02;12.70;99.50
947;DHT22;460;48.734;9.152;2023-08-07T06:35:28;12.70;99.80
947;DHT22;460;48.734;9.152;2023-08-07T06:37:55;12.80;99.90
947;DHT22;460;48.734;9.152;2023-08-07T06:40:22;12.70;99.70
947;DHT22;460;48.734;9.152;2023-08-07T06:42:49;12.70;99.90
947;DHT22;460;48.734;9.152;2023-08-07T06:45:16;12.80;99.60
947;DHT22;460;48.734;9.152;2023-08-07T06:47:44;12.80;99.80
947;DHT22;460;48.734;9.152;2023-08-07T06:50:11;12.90;99.60
947;DHT22;460;48.734;9.152;2023-08-07T06:52:40;13.00;99.80
947;DHT22;460;48.734;9.152;2023-08-07T06:55:07;13.00;99.30
947;DHT22;460;48.734;9.152;2023-08-07T06:57:34;13.10;99.30
947;DHT22;460;48.734;9.152;2023-08-07T07:00:01;13.10;99.30
947;DHT22;460;48.734;9.152;2023-08-07T07:02:28;13.10;98.80
947;DHT22;460;48.734;9.152;2023-08-07T07:04:57;13.20;99.10
947;DHT22;460;48.734;9.152;2023-08-07T07:07:24;13.20;99.00
947;DHT22;460;48.734;9.152;2023-08-07T07:09:51;13.30;98.60
947;DHT22;460;48.734;9.152;2023-08-07T07:12:17;13.30;98.70
947;DHT22;460;48.734;9.152;2023-08-07T07:14:44;13.30;98.40
947;DHT22;460;48.734;9.152;2023-08-07T07:17:11;13.20;98.10
947;DHT22;460;48.734;9.152;2023-08-07T07:19:38;13.30;98.40
947;DHT22;460;48.734;9.152;2023-08-07T07:22:06;13.30;97.80
947;DHT22;460;48.734;9.152;2023-08-07T07:24:33;13.30;97.80
947;DHT22;460;48.734;9.152;2023-08-07T07:27:00;13.30;97.90
947;DHT22;460;48.734;9.152;2023-08-07T07:29:26;13.40;97.50
947;DHT22;460;48.734;9.152;2023-08-07T07:31:53;13.40;97.50
947;DHT22;460;48.734;9.152;2023-08-07T07:34:20;13.40;97.50
947;DHT22;460;48.734;9.152;2023-08-07T07:36:47;13.20;97.40
947;DHT22;460;48.734;9.152;2023-08-07T07:39:15;13.20;97.80
947;DHT22;460;48.734;9.152;2023-08-07T07:41:42;13.30;97.50
947;DHT22;460;48.734;9.152;2023-08-07T07:44:10;13.40;97.70
947;DHT22;460;48.734;9.152;2023-08-07T07:46:37;13.50;97.10
947;DHT22;460;48.734;9.152;2023-08-07T07:49:03;13.60;96.80
947;DHT22;460;48.734;9.152;2023-08-07T07:51:31;13.60;96.30
947;DHT22;460;48.734;9.152;2023-08-07T07:53:58;13.60;96.40
947;DHT22;460;48.734;9.152;2023-08-07T07:56:26;13.80;95.50
947;DHT22;460;48.734;9.152;2023-08-07T07:58:52;14.00;95.40
947;DHT22;460;48.734;9.152;2023-08-07T08:01:19;14.10;95.30
947;DHT22;460;48.734;9.152;2023-08-07T08:03:46;14.20;95.60
947;DHT22;460;48.734;9.152;2023-08-07T08:06:13;14.30;94.90
947;DHT22;460;48.734;9.152;2023-08-07T08:08:40;14.50;95.10
947;DHT22;460;48.734;9.152;2023-08-07T08:11:08;14.50;94.10
947;DHT22;460;48.734;9.152;2023-08-07T08:13:36;14.50;94.40
947;DHT22;460;48.734;9.152;2023-08-07T08:16:05;14.50;93.40
947;DHT22;460;48.734;9.152;2023-08-07T08:18:32;14.40;92.40
947;DHT22;460;48.734;9.152;2023-08-07T08:20:58;14.20;92.50
947;DHT22;460;48.734;9.152;2023-08-07T08:23:25;14.20;92.20
947;DHT22;460;48.734;9.152;2023-08-07T08:25:52;14.20;93.10
947;DHT22;460;48.734;9.152;2023-08-07T08:28:19;14.20;93.40
947;DHT22;460;48.734;9.152;2023-08-07T08:30:48;14.20;93.60
947;DHT22;460;48.734;9.152;2023-08-07T08:33:15;14.30;93.20
947;DHT22;460;48.734;9.152;2023-08-07T08:35:43;14.50;93.60
947;DHT22;460;48.734;9.152;2023-08-07T08:38:10;14.60;93.10
947;DHT22;460;48.734;9.152;2023-08-07T08:40:38;14.80;92.80
947;DHT22;460;48.734;9.152;2023-08-07T08:43:05;15.00;91.60
947;DHT22;460;48.734;9.152;2023-08-07T08:45:33;15.20;91.70
947;DHT22;460;48.734;9.152;2023-08-07T08:48:04;15.30;91.30
947;DHT22;460;48.734;9.152;2023-08-07T08:50:32;15.40;90.20
947;DHT22;460;48.734;9.152;2023-08-07T08:53:02;15.70;90.30
947;DHT22;460;48.734;9.152;2023-08-07T08:55:30;16.00;89.90
947;DHT22;460;48.734;9.152;2023-08-07T08:57:58;15.90;87.40
947;DHT22;460;48.734;9.152;2023-08-07T09:00:27;16.00;88.20
947;DHT22;460;48.734;9.152;2023-08-07T09:02:55;16.00;86.00
947;DHT22;460;48.734;9.152;2023-08-07T09:05:23;16.10;88.20
947;DHT22;460;48.734;9.152;2023-08-07T09:07:50;16.20;88.30
947;DHT22;460;48.734;9.152;2023-08-07T09:10:17;16.30;86.20
947;DHT22;460;48.734;9.152;2023-08-07T09:12:52;16.20;86.90
947;DHT22;460;48.734;9.152;2023-08-07T09:15:20;16.20;88.10
947;DHT22;460;48.734;9.152;2023-08-07T09:17:49;16.30;87.70
947;DHT22;460;48.734;9.152;2023-08-07T09:20:18;16.40;87.90
947;DHT22;460;48.734;9.152;2023-08-07T09:22:46;16.40;88.90
947;DHT22;460;48.734;9.152;2023-08-07T09:25:13;16.50;87.10
947;DHT22;460;48.734;9.152;2023-08-07T09:27:40;16.60;85.50
947;DHT22;460;48.734;9.152;2023-08-07T09:30:07;16.50;83.80
947;DHT22;460;48.734;9.152;2023-08-07T09:32:35;16.40;84.40
947;DHT22;460;48.734;9.152;2023-08-07T09:35:03;16.40;85.00
947;DHT22;460;48.734;9.152;2023-08-07T09:37:30;16.50;84.50
947;DHT22;460;48.734;9.152;2023-08-07T09:40:01;16.50;86.70
947;DHT22;460;48.734;9.152;2023-08-07T09:42:31;16.70;85.80
947;DHT22;460;48.734;9.152;2023-08-07T09:44:59;16.50;83.00
947;DHT22;460;48.734;9.152;2023-08-07T09:47:27;16.50;84.30
947;DHT22;460;48.734;9.152;2023-08-07T09:49:55;16.60;85.50
947;DHT22;460;48.734;9.152;2023-08-07T09:52:24;16.40;83.00
947;DHT22;460;48.734;9.152;2023-08-07T09:54:55;16.30;83.70
947;DHT22;460;48.734;9.152;2023-08-07T09:57:24;16.60;85.00
947;DHT22;460;48.734;9.152;2023-08-07T09:59:52;16.70;83.90
947;DHT22;460;48.734;9.152;2023-08-07T10:02:19;16.80;85.40
947;DHT22;460;48.734;9.152;2023-08-07T10:04:47;16.80;84.10
947;DHT22;460;48.734;9.152;2023-08-07T10:07:14;16.90;84.20
947;DHT22;460;48.734;9.152;2023-08-07T10:09:42;16.80;84.20
947;DHT22;460;48.734;9.152;2023-08-07T10:12:10;16.80;84.40
947;DHT22;460;48.734;9.152;2023-08-07T10:14:40;16.60;84.50
947;DHT22;460;48.734;9.152;2023-08-07T10:17:08;16.80;85.40
947;DHT22;460;48.734;9.152;2023-08-07T10:19:35;17.20;85.80
947;DHT22;460;48.734;9.152;2023-08-07T10:22:05;17.30;85.30
947;DHT22;460;48.734;9.152;2023-08-07T10:24:33;17.50;84.70
947;DHT22;460;48.734;9.152;2023-08-07T10:27:01;17.50;87.50
947;DHT22;460;48.734;9.152;2023-08-07T10:29:29;17.60;83.50
947;DHT22;460;48.734;9.152;2023-08-07T10:31:58;17.40;83.10
947;DHT22;460;48.734;9.152;2023-08-07T10:34:28;17.10;80.80
947;DHT22;460;48.734;9.152;2023-08-07T10:36:55;17.20;81.20
947;DHT22;460;48.734;9.152;2023-08-07T10:39:22;17.30;82.10
947;DHT22;460;48.734;9.152;2023-08-07T10:41:53;17.30;81.70
947;DHT22;460;48.734;9.152;2023-08-07T10:44:21;17.10;78.50
947;DHT22;460;48.734;9.152;2023-08-07T10:46:49;17.10;79.40
947;DHT22;460;48.734;9.152;2023-08-07T10:49:35;17.00;80.00
947;DHT22;460;48.734;9.152;2023-08-07T10:52:03;17.20;81.70
947;DHT22;460;48.734;9.152;2023-08-07T10:54:30;16.90;78.70
947;DHT22;460;48.734;9.152;2023-08-07T10:57:10;16.70;77.00
947;DHT22;460;48.734;9.152;2023-08-07T10:59:38;16.90;79.90
947;DHT22;460;48.734;9.152;2023-08-07T11:02:08;17.10;78.70
947;DHT22;460;48.734;9.152;2023-08-07T11:04:39;17.10;79.10
947;DHT22;460;48.734;9.152;2023-08-07T11:07:06;17.10;79.80
947;DHT22;460;48.734;9.152;2023-08-07T11:09:33;17.20;80.10
947;DHT22;460;48.734;9.152;2023-08-07T11:12:00;17.50;82.20
947;DHT22;460;48.734;9.152;2023-08-07T11:14:27;17.90;82.30
947;DHT22;460;48.734;9.152;2023-08-07T11:16:54;18.40;79.20
947;DHT22;460;48.734;9.152;2023-08-07T11:19:22;18.30;78.10
947;DHT22;460;48.734;9.152;2023-08-07T11:21:51;17.90;77.00
947;DHT22;460;48.734;9.152;2023-08-07T11:24:17;17.60;78.10
947;DHT22;460;48.734;9.152;2023-08-07T11:26:47;17.30;78.30
947;DHT22;460;48.734;9.152;2023-08-07T11:29:16;17.00;80.10
947;DHT22;460;48.734;9.152;2023-08-07T11:31:43;17.10;81.00
947;DHT22;460;48.734;9.152;2023-08-07T11:34:10;16.90;81.80
947;DHT22;460;48.734;9.152;2023-08-07T11:36:41;16.80;79.60
947;DHT22;460;48.734;9.152;2023-08-07T11:39:11;16.40;82.10
947;DHT22;460;48.734;9.152;2023-08-07T11:41:38;16.30;82.80
947;DHT22;460;48.734;9.152;2023-08-07T11:44:07;16.10;83.00
947;DHT22;460;48.734;9.152;2023-08-07T11:46:35;16.00;83.90
947;DHT22;460;48.734;9.152;2023-08-07T11:49:02;16.00;84.80
947;DHT22;460;48.734;9.152;2023-08-07T11:51:30;15.90;84.40
947;DHT22;460;48.734;9.152;2023-08-07T11:53:56;15.90;83.80
947;DHT22;460;48.734;9.152;2023-08-07T11:56:25;15.80;82.60
947;DHT22;460;48.734;9.152;2023-08-07T11:58:52;15.70;82.40
947;DHT22;460;48.734;9.152;2023-08-07T12:01:20;15.60;83.60
947;DHT22;460;48.734;9.152;2023-08-07T12:03:51;15.50;83.40
947;DHT22;460;48.734;9.152;2023-08-07T12:06:19;15.50;85.70
947;DHT22;460;48.734;9.152;2023-08-07T12:08:49;15.50;86.90
947;DHT22;460;48.734;9.152;2023-08-07T12:11:16;15.50;88.30
947;DHT22;460;48.734;9.152;2023-08-07T12:13:45;15.40;90.10
947;DHT22;460;48.734;9.152;2023-08-07T12:16:13;15.30;90.50
947;DHT22;460;48.734;9.152;2023-08-07T12:18:43;15.30;90.50
947;DHT22;460;48.734;9.152;2023-08-07T12:21:10;15.40;91.60
947;DHT22;460;48.734;9.152;2023-08-07T12:23:37;15.40;91.50
947;DHT22;460;48.734;9.152;2023-08-07T12:26:04;15.20;91.90
947;DHT22;460;48.734;9.152;2023-08-07T12:28:32;15.10;92.60
947;DHT22;460;48.734;9.152;2023-08-07T12:31:00;15.10;92.30
947;DHT22;460;48.734;9.152;2023-08-07T12:33:28;15.30;93.00
947;DHT22;460;48.734;9.152;2023-08-07T12:35:56;15.30;92.10
947;DHT22;460;48.734;9.152;2023-08-07T12:38:24;15.40;92.80
947;DHT22;460;48.734;9.152;2023-08-07T12:40:51;15.50;92.30
947;DHT22;460;48.734;9.152;2023-08-07T12:43:18;15.70;92.10
947;DHT22;460;48.734;9.152;2023-08-07T12:45:45;15.80;91.90
947;DHT22;460;48.734;9.152;2023-08-07T12:48:13;16.30;92.10
947;DHT22;460;48.734;9.152;2023-08-07T12:50:40;16.60;92.20
947;DHT22;460;48.734;9.152;2023-08-07T12:53:08;16.90;91.10
947;DHT22;460;48.734;9.152;2023-08-07T12:55:34;17.00;91.20
947;DHT22;460;48.734;9.152;2023-08-07T12:58:01;16.90;86.70
947;DHT22;460;48.734;9.152;2023-08-07T13:00:28;16.80;87.30
947;DHT22;460;48.734;9.152;2023-08-07T13:02:55;17.00;88.30
947;DHT22;460;48.734;9.152;2023-08-07T13:05:23;17.20;87.90
947;DHT22;460;48.734;9.152;2023-08-07T13:07:50;17.10;87.30
947;DHT22;460;48.734;9.152;2023-08-07T13:10:20;17.20;87.90
947;DHT22;460;48.734;9.152;2023-08-07T13:12:47;17.20;87.30
947;DHT22;460;48.734;9.152;2023-08-07T13:15:16;17.30;88.70
947;DHT22;460;48.734;9.152;2023-08-07T13:17:44;17.50;85.70
947;DHT22;460;48.734;9.152;2023-08-07T13:20:12;17.80;87.00
947;DHT22;460;48.734;9.152;2023-08-07T13:22:41;17.40;83.30
947;DHT22;460;48.734;9.152;2023-08-07T13:25:09;17.40;85.70
947;DHT22;460;48.734;9.152;2023-08-07T13:27:37;17.20;85.40
947;DHT22;460;48.734;9.152;2023-08-07T13:30:05;17.30;88.70
947;DHT22;460;48.734;9.152;2023-08-07T13:32:32;17.30;87.80
947;DHT22;460;48.734;9.152;2023-08-07T13:34:59;17.20;86.90
947;DHT22;460;48.734;9.152;2023-08-07T13:37:26;16.90;86.60
947;DHT22;460;48.734;9.152;2023-08-07T13:39:54;16.70;85.40
947;DHT22;460;48.734;9.152;2023-08-07T13:42:23;16.60;85.00
947;DHT22;460;48.734;9.152;2023-08-07T13:44:50;16.50;86.90
947;DHT22;460;48.734;9.152;2023-08-07T13:47:17;16.60;86.70
947;DHT22;460;48.734;9.152;2023-08-07T13:49:45;16.60;86.50
947;DHT22;460;48.734;9.152;2023-08-07T13:52:12;16.90;85.10
947;DHT22;460;48.734;9.152;2023-08-07T13:54:39;17.30;85.50
947;DHT22;460;48.734;9.152;2023-08-07T13:57:07;18.00;84.00
947;DHT22;460;48.734;9.152;2023-08-07T13:59:34;18.00;83.50
947;DHT22;460;48.734;9.152;2023-08-07T14:02:01;18.20;85.30
947;DHT22;460;48.734;9.152;2023-08-07T14:04:28;18.20;80.70
947;DHT22;460;48.734;9.152;2023-08-07T14:06:54;17.90;81.10
947;DHT22;460;48.734;9.152;2023-08-07T14:09:21;18.20;81.50
947;DHT22;460;48.734;9.152;2023-08-07T14:11:48;18.20;78.70
947;DHT22;460;48.734;9.152;2023-08-07T14:14:16;18.20;79.70
947;DHT22;460;48.734;9.152;2023-08-07T14:16:43;18.10;80.50
947;DHT22;460;48.734;9.152;2023-08-07T14:19:10;18.20;81.50
947;DHT22;460;48.734;9.152;2023-08-07T14:21:36;19.70;81.10
947;DHT22;460;48.734;9.152;2023-08-07T14:24:04;21.10;75.60
947;DHT22;460;48.734;9.152;2023-08-07T14:26:31;22.70;73.70
947;DHT22;460;48.734;9.152;2023-08-07T14:28:59;22.70;67.80
947;DHT22;460;48.734;9.152;2023-08-07T14:31:27;21.60;66.20
947;DHT22;460;48.734;9.152;2023-08-07T14:33:54;20.80;70.20
947;DHT22;460;48.734;9.152;2023-08-07T14:36:22;20.00;70.50
947;DHT22;460;48.734;9.152;2023-08-07T14:38:48;19.50;70.30
947;DHT22;460;48.734;9.152;2023-08-07T14:41:17;19.40;73.10
947;DHT22;460;48.734;9.152;2023-08-07T14:43:44;19.20;72.70
947;DHT22;460;48.734;9.152;2023-08-07T14:46:11;18.80;74.00
947;DHT22;460;48.734;9.152;2023-08-07T14:48:39;18.70;74.40
947;DHT22;460;48.734;9.152;2023-08-07T14:51:06;18.70;76.00
947;DHT22;460;48.734;9.152;2023-08-07T14:53:33;18.60;75.60
947;DHT22;460;48.734;9.152;2023-08-07T14:56:00;18.50;74.50
947;DHT22;460;48.734;9.152;2023-08-07T14:58:28;18.40;75.70
947;DHT22;460;48.734;9.152;2023-08-07T15:00:55;18.40;76.30
947;DHT22;460;48.734;9.152;2023-08-07T15:03:24;18.40;77.00
947;DHT22;460;48.734;9.152;2023-08-07T15:05:55;18.60;78.70
947;DHT22;460;48.734;9.152;2023-08-07T15:08:23;18.70;78.00
947;DHT22;460;48.734;9.152;2023-08-07T15:10:51;18.60;73.80
947;DHT22;460;48.734;9.152;2023-08-07T15:13:19;18.50;74.50
947;DHT22;460;48.734;9.152;2023-08-07T15:15:46;18.50;76.30
947;DHT22;460;48.734;9.152;2023-08-07T15:18:13;18.50;76.50
947;DHT22;460;48.734;9.152;2023-08-07T15:20:40;18.60;76.50
947;DHT22;460;48.734;9.152;2023-08-07T15:23:08;18.50;76.10
947;DHT22;460;48.734;9.152;2023-08-07T15:25:37;18.70;77.20
947;DHT22;460;48.734;9.152;2023-08-07T15:28:04;18.60;75.20
947;DHT22;460;48.734;9.152;2023-08-07T15:30:32;18.50;75.20
947;DHT22;460;48.734;9.152;2023-08-07T15:32:59;18.50;78.40
947;DHT22;460;48.734;9.152;2023-08-07T15:35:29;18.50;76.60
947;DHT22;460;48.734;9.152;2023-08-07T15:37:56;18.50;76.90
947;DHT22;460;48.734;9.152;2023-08-07T15:40:24;18.40;77.90
947;DHT22;460;48.734;9.152;2023-08-07T15:42:51;18.20;79.30
947;DHT22;460;48.734;9.152;2023-08-07T15:45:18;18.10;79.60
947;DHT22;460;48.734;9.152;2023-08-07T15:47:45;18.00;78.80
947;DHT22;460;48.734;9.152;2023-08-07T15:50:12;17.90;81.20
947;DHT22;460;48.734;9.152;2023-08-07T15:52:39;17.90;80.50
947;DHT22;460;48.734;9.152;2023-08-07T15:55:06;17.80;77.90
947;DHT22;460;48.734;9.152;2023-08-07T15:57:35;17.90;79.00
947;DHT22;460;48.734;9.152;2023-08-07T16:00:02;18.00;76.00
947;DHT22;460;48.734;9.152;2023-08-07T16:02:30;18.00;76.10
947;DHT22;460;48.734;9.152;2023-08-07T16:04:57;17.80;75.50
947;DHT22;460;48.734;9.152;2023-08-07T16:07:23;17.70;76.90
947;DHT22;460;48.734;9.152;2023-08-07T16:09:50;17.60;77.80
947;DHT22;460;48.734;9.152;2023-08-07T16:12:17;17.60;79.00
947;DHT22;460;48.734;9.152;2023-08-07T16:14:46;17.70;79.40
947;DHT22;460;48.734;9.152;2023-08-07T16:17:13;17.80;78.80
947;DHT22;460;48.734;9.152;2023-08-07T16:19:40;17.90;80.70
947;DHT22;460;48.734;9.152;2023-08-07T16:22:09;18.00;79.80
947;DHT22;460;48.734;9.152;2023-08-07T16:24:39;18.20;81.40
947;DHT22;460;48.734;9.152;2023-08-07T16:27:06;18.10;80.40
947;DHT22;460;48.734;9.152;2023-08-07T16:29:35;18.20;81.50
947;DHT22;460;48.734;9.152;2023-08-07T16:32:23;18.10;79.20
947;DHT22;460;48.734;9.152;2023-08-07T16:34:49;18.00;80.20
947;DHT22;460;48.734;9.152;2023-08-07T16:37:16;17.80;78.40